Time;durP1;ratioP1;P1;durP2;ratioP2;P2;SDS_P1;SDS_P2;PMS_P1;PMS_P2;Temp;Humidity;BMP_temperature;BMP_pressure;BME280_temperature;BME280_humidity;BME280_pressure;Samples;Min_cycle;Max_cycle;Signal;HPM_P1;HPM_P2
2021/06/19 00:00:42;;;;;;;10.00;1.95;;;24.80;99.90;;;;;;1931689;74;21070;-74
2021/06/19 00:03:08;;;;;;;11.33;1.87;;;24.90;99.90;;;;;;1931527;74;21153;-73
2021/06/19 00:05:34;;;;;;;12.78;1.77;;;25.00;99.90;;;;;;1931596;74;21034;-75
2021/06/19 00:08:00;;;;;;;5.67;1.82;;;25.10;99.90;;;;;;1931501;74;21106;-76
2021/06/19 00:10:26;;;;;;;5.75;1.72;;;25.10;99.90;;;;;;1931532;74;21090;-74
2021/06/19 00:12:52;;;;;;;5.85;1.70;;;25.00;99.90;;;;;;1933987;74;21090;-74
2021/06/19 00:15:19;;;;;;;5.87;1.60;;;24.90;99.90;;;;;;1935538;74;21039;-74
2021/06/19 00:17:45;;;;;;;7.30;1.98;;;24.90;99.90;;;;;;1932585;73;21070;-73
2021/06/19 00:20:11;;;;;;;12.88;2.55;;;24.70;99.90;;;;;;1931831;74;21038;-74
2021/06/19 00:22:37;;;;;;;5.17;2.02;;;24.70;99.90;;;;;;1931500;74;21193;-74
2021/06/19 00:25:03;;;;;;;8.43;2.10;;;24.80;99.90;;;;;;1931731;74;21064;-74
2021/06/19 00:27:29;;;;;;;7.05;1.92;;;24.80;99.90;;;;;;1931477;74;21110;-74
2021/06/19 00:29:55;;;;;;;5.03;1.60;;;24.80;99.90;;;;;;1931655;74;21560;-74
2021/06/19 00:32:21;;;;;;;11.95;1.87;;;24.80;99.90;;;;;;1931426;73;21094;-74
2021/06/19 00:34:48;;;;;;;11.68;1.90;;;24.80;99.90;;;;;;1931871;74;21031;-75
2021/06/19 00:37:14;;;;;;;12.55;1.82;;;24.70;99.90;;;;;;1931446;73;21091;-74
2021/06/19 00:39:40;;;;;;;14.58;1.80;;;24.70;99.90;;;;;;1931621;73;21151;-74
2021/06/19 00:42:06;;;;;;;9.45;1.72;;;24.50;99.90;;;;;;1931611;74;21077;-72
2021/06/19 00:44:32;;;;;;;8.33;2.00;;;24.40;99.90;;;;;;1931570;74;21069;-73
2021/06/19 00:46:58;;;;;;;6.95;2.20;;;24.40;99.90;;;;;;1931404;74;21208;-73
2021/06/19 00:49:24;;;;;;;5.85;1.52;;;24.40;99.90;;;;;;1931686;74;21144;-73
2021/06/19 00:51:51;;;;;;;6.95;2.37;;;24.40;99.90;;;;;;1931707;74;21070;-74
2021/06/19 00:54:17;;;;;;;11.05;2.40;;;24.40;99.90;;;;;;1931420;74;21184;-73
2021/06/19 00:56:43;;;;;;;7.72;1.82;;;24.40;99.90;;;;;;1931511;74;21070;-73
2021/06/19 00:59:09;;;;;;;17.07;2.20;;;24.30;99.90;;;;;;1931491;74;21090;-72
2021/06/19 01:01:35;;;;;;;11.33;2.10;;;24.20;99.90;;;;;;1931516;74;21730;-73
2021/06/19 01:04:01;;;;;;;7.20;2.08;;;24.20;99.90;;;;;;1928557;73;21498;-73
2021/06/19 01:06:27;;;;;;;11.60;2.27;;;24.10;99.90;;;;;;1931524;74;21092;-72
2021/06/19 01:08:53;;;;;;;9.85;2.00;;;24.10;99.90;;;;;;1925753;74;21098;-73
2021/06/19 01:11:24;;;;;;;14.73;2.22;;;24.10;99.90;;;;;;1931524;74;21139;-73
2021/06/19 01:13:48;;;;;;;6.22;1.75;;;24.10;99.90;;;;;;1921054;74;21123;-72
2021/06/19 01:16:14;;;;;;;3.98;1.32;;;24.10;99.90;;;;;;1928850;74;21102;-72
2021/06/19 01:18:40;;;;;;;7.33;2.17;;;24.10;99.90;;;;;;1931529;74;21176;-73
2021/06/19 01:21:06;;;;;;;9.10;2.58;;;24.10;99.90;;;;;;1920747;74;21137;-72
2021/06/19 01:23:32;;;;;;;11.68;1.90;;;24.00;99.90;;;;;;1921313;74;21081;-73
2021/06/19 01:25:58;;;;;;;16.52;3.10;;;24.00;99.90;;;;;;1931400;74;21093;-73
2021/06/19 01:28:24;;;;;;;10.03;1.40;;;24.10;99.90;;;;;;1925767;73;21082;-73
2021/06/19 01:30:50;;;;;;;15.93;2.05;;;24.10;99.90;;;;;;1928563;74;21204;-73
2021/06/19 01:33:17;;;;;;;9.35;2.25;;;24.00;99.90;;;;;;1931580;74;21061;-74
2021/06/19 01:35:43;;;;;;;7.10;1.87;;;24.00;99.90;;;;;;1931407;74;21165;-72
2021/06/19 01:38:09;;;;;;;9.45;1.77;;;23.90;99.90;;;;;;1931545;74;21156;-73
2021/06/19 01:40:35;;;;;;;6.15;2.00;;;23.90;99.90;;;;;;1931389;73;21078;-71
2021/06/19 01:43:01;;;;;;;4.85;1.65;;;23.80;99.90;;;;;;1931597;74;21155;-72
2021/06/19 01:45:27;;;;;;;11.83;1.75;;;23.70;99.90;;;;;;1931438;74;21065;-71
2021/06/19 01:47:53;;;;;;;12.82;2.35;;;23.60;99.90;;;;;;1931457;73;21039;-72
2021/06/19 01:50:20;;;;;;;6.78;1.85;;;23.60;99.90;;;;;;1931509;74;21098;-72
2021/06/19 01:52:46;;;;;;;11.20;1.95;;;23.50;99.90;;;;;;1931484;74;21113;-71
2021/06/19 01:55:12;;;;;;;12.18;1.80;;;23.50;99.90;;;;;;1931482;74;21147;-72
2021/06/19 01:57:38;;;;;;;10.78;1.77;;;23.50;99.90;;;;;;1931471;74;21069;-71
2021/06/19 02:00:05;;;;;;;10.53;1.57;;;23.40;99.90;;;;;;1931506;74;21157;-72
2021/06/19 02:02:31;;;;;;;4.67;1.85;;;23.40;99.90;;;;;;1931571;73;21147;-73
2021/06/19 02:04:57;;;;;;;12.50;2.50;;;23.40;99.90;;;;;;1931345;73;21099;-72
2021/06/19 02:07:23;;;;;;;4.95;1.85;;;23.30;99.90;;;;;;1931523;74;21035;-73
2021/06/19 02:09:50;;;;;;;4.42;1.67;;;23.30;99.90;;;;;;1931370;74;21098;-72
2021/06/19 02:12:17;;;;;;;16.77;2.37;;;23.40;99.90;;;;;;1931526;74;21120;-73
2021/06/19 02:14:43;;;;;;;4.17;1.27;;;23.40;99.90;;;;;;1931588;74;21517;-73
2021/06/19 02:17:09;;;;;;;7.75;1.60;;;23.40;99.90;;;;;;1931489;74;21631;-73
2021/06/19 02:19:36;;;;;;;7.15;1.25;;;23.40;99.90;;;;;;1931595;74;21647;-74
2021/06/19 02:22:02;;;;;;;3.10;1.57;;;23.30;99.90;;;;;;1931499;74;21592;-72
2021/06/19 02:24:28;;;;;;;9.78;1.95;;;23.30;99.90;;;;;;1931588;73;21552;-71
2021/06/19 02:26:54;;;;;;;9.60;1.70;;;23.30;99.90;;;;;;1931403;73;21538;-72
2021/06/19 02:29:20;;;;;;;3.98;1.40;;;23.30;99.90;;;;;;1931543;73;21490;-72
2021/06/19 02:31:46;;;;;;;6.78;1.62;;;23.30;99.90;;;;;;1931386;74;21157;-72
2021/06/19 02:34:12;;;;;;;11.50;1.95;;;23.30;99.90;;;;;;1931561;74;21194;-72
2021/06/19 02:36:38;;;;;;;14.10;1.90;;;23.30;99.90;;;;;;1931353;74;21083;-73
2021/06/19 02:39:04;;;;;;;3.62;1.52;;;23.30;99.90;;;;;;1931538;74;21069;-73
2021/06/19 02:41:31;;;;;;;13.83;2.10;;;23.30;99.90;;;;;;1931482;74;21180;-73
2021/06/19 02:43:57;;;;;;;5.83;1.82;;;23.30;99.90;;;;;;1931609;74;21217;-73
2021/06/19 02:46:23;;;;;;;10.30;1.85;;;23.20;99.90;;;;;;1931375;74;21099;-73
2021/06/19 02:48:49;;;;;;;8.05;1.77;;;23.10;99.90;;;;;;1931547;74;21163;-73
2021/06/19 02:51:15;;;;;;;10.20;1.70;;;23.00;99.90;;;;;;1931398;74;21180;-72
2021/06/19 02:53:41;;;;;;;4.53;1.55;;;23.00;99.90;;;;;;1931352;74;21051;-73
2021/06/19 02:56:07;;;;;;;4.15;1.87;;;22.90;99.90;;;;;;1931542;74;21136;-74
2021/06/19 02:58:33;;;;;;;5.28;1.80;;;22.80;99.90;;;;;;1931334;74;21102;-73
2021/06/19 03:01:00;;;;;;;12.60;1.50;;;22.80;99.90;;;;;;1931421;73;21079;-73
2021/06/19 03:03:26;;;;;;;9.85;1.87;;;22.80;99.90;;;;;;1931437;74;21135;-73
2021/06/19 03:05:52;;;;;;;9.13;1.95;;;22.80;99.90;;;;;;1931434;74;21087;-73
2021/06/19 03:08:18;;;;;;;16.12;1.85;;;22.70;99.90;;;;;;1931299;74;21114;-73
2021/06/19 03:10:45;;;;;;;5.90;1.62;;;22.70;99.90;;;;;;1931498;74;21579;-72
2021/06/19 03:13:11;;;;;;;6.87;1.55;;;22.70;99.90;;;;;;1931446;74;21180;-73
2021/06/19 03:15:37;;;;;;;7.72;1.95;;;22.70;99.90;;;;;;1931430;74;21168;-72
2021/06/19 03:18:03;;;;;;;11.88;1.60;;;22.60;99.90;;;;;;1931434;74;21087;-73
2021/06/19 03:20:29;;;;;;;4.08;1.92;;;22.70;99.90;;;;;;1931507;74;21070;-73
2021/06/19 03:22:55;;;;;;;6.12;1.70;;;22.60;99.90;;;;;;1931618;73;21186;-73
2021/06/19 03:25:22;;;;;;;11.60;2.12;;;22.70;99.90;;;;;;1931667;74;21034;-73
2021/06/19 03:27:48;;;;;;;6.65;2.30;;;22.60;99.90;;;;;;1931644;74;21066;-74
2021/06/19 03:30:14;;;;;;;9.45;1.85;;;22.60;99.90;;;;;;1931661;74;21069;-74
2021/06/19 03:32:40;;;;;;;5.28;1.80;;;22.60;99.90;;;;;;1931649;74;21151;-74
2021/06/19 03:35:06;;;;;;;12.45;2.65;;;22.70;99.90;;;;;;1931589;74;21073;-73
2021/06/19 03:37:32;;;;;;;7.42;2.12;;;22.70;99.90;;;;;;1931647;74;21062;-74
2021/06/19 03:39:58;;;;;;;5.65;1.55;;;22.70;99.90;;;;;;1931581;74;21070;-74
2021/06/19 03:42:24;;;;;;;9.75;2.42;;;22.70;99.90;;;;;;1931651;73;21074;-73
2021/06/19 03:44:51;;;;;;;3.85;1.95;;;22.60;99.90;;;;;;1931691;74;21030;-73
2021/06/19 03:47:17;;;;;;;9.98;1.87;;;22.60;99.90;;;;;;1931454;74;21102;-72
2021/06/19 03:49:43;;;;;;;8.13;1.85;;;22.60;99.90;;;;;;1931687;74;21128;-72
2021/06/19 03:52:10;;;;;;;7.25;2.25;;;22.50;99.90;;;;;;1931469;74;21094;-73
2021/06/19 03:54:37;;;;;;;15.20;2.30;;;22.50;99.90;;;;;;1921248;74;21093;-73
2021/06/19 03:57:03;;;;;;;15.78;1.98;;;22.50;99.90;;;;;;1927677;73;21546;-72
2021/06/19 03:59:29;;;;;;;5.45;2.05;;;22.60;99.90;;;;;;1921569;74;21521;-72
2021/06/19 04:01:56;;;;;;;14.55;2.60;;;22.60;99.90;;;;;;1922959;74;21659;-74
2021/06/19 04:04:22;;;;;;;12.30;2.25;;;22.50;99.90;;;;;;1931472;74;21531;-73
2021/06/19 04:06:48;;;;;;;13.18;2.45;;;22.30;99.90;;;;;;1925913;74;21518;-73
2021/06/19 04:09:14;;;;;;;10.53;2.08;;;22.20;99.90;;;;;;1931498;74;21591;-72
2021/06/19 04:11:40;;;;;;;14.23;3.20;;;22.20;99.90;;;;;;1931558;74;21439;-72
2021/06/19 04:14:06;;;;;;;6.50;1.98;;;22.20;99.90;;;;;;1931550;74;21585;-72
2021/06/19 04:16:32;;;;;;;6.92;2.12;;;22.20;99.90;;;;;;1931561;73;21066;-72
2021/06/19 04:18:58;;;;;;;6.78;2.45;;;22.20;99.90;;;;;;1931571;74;21058;-72
2021/06/19 04:21:25;;;;;;;13.53;2.98;;;22.30;99.90;;;;;;1931534;74;21151;-72
2021/06/19 04:23:51;;;;;;;5.58;2.90;;;22.40;99.90;;;;;;1931615;74;21061;-71
2021/06/19 04:26:17;;;;;;;7.03;2.52;;;22.20;99.90;;;;;;1934524;74;21142;-71
2021/06/19 04:28:43;;;;;;;25.30;2.80;;;22.20;99.90;;;;;;1934920;73;21100;-72
2021/06/19 04:31:09;;;;;;;10.98;2.75;;;22.20;99.90;;;;;;1932067;73;21038;-72
2021/06/19 04:33:35;;;;;;;12.53;2.83;;;22.20;99.90;;;;;;1931643;74;21366;-72
2021/06/19 04:36:02;;;;;;;12.25;2.20;;;22.20;99.90;;;;;;1931683;74;21054;-71
2021/06/19 04:38:28;;;;;;;8.63;2.17;;;22.20;99.90;;;;;;1931564;74;21078;-71
2021/06/19 04:41:01;;;;;;;13.80;3.05;;;22.30;99.90;;;;;;1931509;73;21093;-72
2021/06/19 04:43:30;;;;;;;8.73;2.55;;;22.40;99.90;;;;;;1930946;74;21098;-72
2021/06/19 04:45:53;;;;;;;7.78;2.22;;;22.30;99.90;;;;;;1930736;74;21164;-72
2021/06/19 04:48:19;;;;;;;5.67;2.27;;;22.20;99.90;;;;;;1931651;74;21147;-72
2021/06/19 04:50:45;;;;;;;16.52;2.80;;;22.20;99.90;;;;;;1931670;74;21074;-72
2021/06/19 04:53:11;;;;;;;10.90;2.42;;;22.30;99.90;;;;;;1931550;73;21034;-72
2021/06/19 04:55:37;;;;;;;8.20;2.25;;;22.40;99.90;;;;;;1931649;74;21143;-72
2021/06/19 04:58:04;;;;;;;16.95;2.80;;;22.50;99.90;;;;;;1931669;74;21070;-72
2021/06/19 05:00:30;;;;;;;11.65;2.42;;;22.70;99.90;;;;;;1931551;73;21035;-72
2021/06/19 05:02:56;;;;;;;9.03;2.30;;;22.80;99.90;;;;;;1931526;74;21263;-72
2021/06/19 05:05:23;;;;;;;14.07;2.35;;;22.70;99.90;;;;;;1931634;74;21490;-71
2021/06/19 05:07:50;;;;;;;9.38;2.55;;;22.80;99.90;;;;;;1931586;74;21147;-72
2021/06/19 05:10:16;;;;;;;7.28;2.58;;;23.00;99.90;;;;;;1931527;73;21113;-72
2021/06/19 05:12:45;;;;;;;7.90;2.58;;;23.10;99.90;;;;;;1931621;74;21143;-73
2021/06/19 05:15:12;;;;;;;12.60;1.80;;;22.80;99.90;;;;;;1931649;74;21089;-72
2021/06/19 05:17:38;;;;;;;10.25;2.50;;;22.70;99.90;;;;;;1931539;74;21042;-75
2021/06/19 05:20:04;;;;;;;8.40;2.20;;;22.80;99.90;;;;;;1931726;73;21073;-74
2021/06/19 05:22:30;;;;;;;7.30;2.27;;;22.90;99.90;;;;;;1931511;74;21103;-74
2021/06/19 05:24:57;;;;;;;8.00;2.10;;;23.20;99.90;;;;;;1931514;74;21039;-74
2021/06/19 05:27:23;;;;;;;6.72;2.60;;;23.50;99.90;;;;;;1931506;74;21046;-72
2021/06/19 05:29:49;;;;;;;7.40;2.20;;;24.00;99.90;;;;;;1931531;74;21151;-73
2021/06/19 05:32:16;;;;;;;5.78;2.25;;;25.00;99.90;;;;;;1931656;74;21101;-73
2021/06/19 05:34:42;;;;;;;7.50;2.33;;;26.50;99.90;;;;;;1931374;74;21091;-74
2021/06/19 05:37:08;;;;;;;5.40;2.20;;;27.60;99.90;;;;;;1931396;74;21527;-76
2021/06/19 05:39:34;;;;;;;6.12;2.17;;;27.70;99.90;;;;;;1931630;74;21490;-75
2021/06/19 05:42:00;;;;;;;4.60;1.77;;;28.30;99.90;;;;;;1931381;74;21607;-75
2021/06/19 05:44:26;;;;;;;8.48;2.15;;;27.80;99.90;;;;;;1931589;74;21130;-76
2021/06/19 05:46:52;;;;;;;4.42;1.87;;;26.90;99.90;;;;;;1931323;74;21083;-75
2021/06/19 05:49:19;;;;;;;7.58;2.30;;;26.50;99.90;;;;;;1931543;74;21081;-75
2021/06/19 05:51:45;;;;;;;9.63;2.05;;;26.00;99.90;;;;;;1931478;74;21098;-74
2021/06/19 05:54:11;;;;;;;4.20;2.12;;;25.70;99.90;;;;;;1931476;74;21073;-74
2021/06/19 05:56:37;;;;;;;16.27;1.98;;;25.30;99.90;;;;;;1931493;74;21106;-75
2021/06/19 05:59:03;;;;;;;10.60;2.00;;;25.00;99.90;;;;;;1931510;74;21074;-74
2021/06/19 06:01:33;;;;;;;9.23;2.10;;;24.70;99.90;;;;;;1931476;74;21147;-74
2021/06/19 06:03:57;;;;;;;14.93;2.52;;;24.40;99.90;;;;;;1930010;74;21095;-76
2021/06/19 06:06:23;;;;;;;4.60;2.33;;;24.20;99.90;;;;;;1931691;74;21081;-74
2021/06/19 06:08:49;;;;;;;5.75;2.20;;;24.00;99.90;;;;;;1931544;74;21046;-74
2021/06/19 06:11:15;;;;;;;5.45;2.37;;;24.00;99.90;;;;;;1931401;74;21102;-74
2021/06/19 06:13:41;;;;;;;9.98;3.10;;;24.40;99.90;;;;;;1931364;74;21184;-72
2021/06/19 06:16:08;;;;;;;10.28;2.37;;;25.40;99.90;;;;;;1927987;74;21168;-74
2021/06/19 06:18:34;;;;;;;7.70;2.40;;;26.40;99.90;;;;;;1923209;74;21591;-78
2021/06/19 06:21:00;;;;;;;8.53;2.27;;;26.90;99.90;;;;;;1920363;74;21082;-78
2021/06/19 06:23:26;;;;;;;11.50;2.83;;;27.20;99.90;;;;;;1917422;74;21121;-78
2021/06/19 06:25:52;;;;;;;11.95;2.10;;;27.60;99.90;;;;;;1924195;74;21167;-78
2021/06/19 06:28:19;;;;;;;10.53;2.05;;;27.10;99.90;;;;;;1926520;74;21101;-79
2021/06/19 06:30:45;;;;;;;7.03;2.25;;;27.10;99.90;;;;;;1929884;74;21047;-81
2021/06/19 06:33:11;;;;;;;10.82;2.65;;;27.60;99.90;;;;;;1925840;74;21163;-76
2021/06/19 06:35:37;;;;;;;9.85;2.37;;;27.90;99.90;;;;;;1931439;74;21183;-75
2021/06/19 06:38:03;;;;;;;6.50;2.55;;;27.80;99.90;;;;;;1925811;74;21126;-76
2021/06/19 06:40:29;;;;;;;11.00;2.22;;;27.90;99.90;;;;;;1931508;74;21155;-75
2021/06/19 06:42:55;;;;;;;5.35;1.95;;;27.50;99.90;;;;;;1931528;74;21132;-74
2021/06/19 06:45:22;;;;;;;18.73;2.45;;;28.50;99.90;;;;;;1931566;74;21181;-77
2021/06/19 06:47:48;;;;;;;7.33;2.50;;;29.30;99.90;;;;;;1931512;74;21083;-78
2021/06/19 06:50:14;;;;;;;7.75;2.20;;;28.90;99.90;;;;;;1931547;74;21102;-76
2021/06/19 06:52:40;;;;;;;12.35;2.02;;;29.20;99.90;;;;;;1931390;73;21094;-76
2021/06/19 06:55:06;;;;;;;10.70;2.87;;;29.20;99.90;;;;;;1931644;73;21221;-76
2021/06/19 06:57:32;;;;;;;8.58;2.22;;;29.20;99.90;;;;;;1931493;74;21149;-76
2021/06/19 06:59:58;;;;;;;9.23;2.15;;;28.80;99.90;;;;;;1931739;74;21071;-76
2021/06/19 07:02:25;;;;;;;7.00;1.85;;;29.30;99.90;;;;;;1931779;74;21042;-76
2021/06/19 07:04:51;;;;;;;7.72;2.10;;;30.20;99.90;;;;;;1931671;74;21523;-85
2021/06/19 07:07:18;;;;;;;7.35;2.58;;;31.00;99.90;;;;;;1931521;74;21103;-77
2021/06/19 07:09:44;;;;;;;9.95;2.20;;;31.40;99.90;;;;;;1931611;74;21079;-80
2021/06/19 07:12:10;;;;;;;8.95;2.47;;;31.00;99.90;;;;;;1931534;73;21110;-77
2021/06/19 07:14:36;;;;;;;5.25;1.87;;;30.40;99.90;;;;;;1931640;73;21120;-79
2021/06/19 07:17:07;;;;;;;5.03;2.33;;;30.30;99.90;;;;;;1931614;74;21066;-79
2021/06/19 07:19:30;;;;;;;11.53;2.42;;;30.10;99.90;;;;;;1930574;74;21095;-79
2021/06/19 07:21:56;;;;;;;6.80;2.17;;;29.80;99.90;;;;;;1931818;74;21118;-79
2021/06/19 07:24:22;;;;;;;5.97;1.92;;;30.80;99.90;;;;;;1931831;73;21070;-77
2021/06/19 07:26:49;;;;;;;10.58;2.62;;;30.70;99.90;;;;;;1931707;74;21527;-77
2021/06/19 07:29:15;;;;;;;9.35;2.60;;;29.00;99.90;;;;;;1931585;73;21531;-77
2021/06/19 07:31:41;;;;;;;9.18;2.15;;;30.10;99.90;;;;;;1931597;74;21493;-78
2021/06/19 07:34:07;;;;;;;9.70;2.42;;;30.30;99.90;;;;;;1931615;74;21564;-78
2021/06/19 07:36:33;;;;;;;7.20;2.20;;;30.50;99.90;;;;;;1931683;73;21442;-77
2021/06/19 07:38:59;;;;;;;8.23;2.55;;;30.40;99.90;;;;;;1931749;74;21031;-77
2021/06/19 07:41:25;;;;;;;17.35;3.35;;;30.20;99.90;;;;;;1931703;74;21069;-78
2021/06/19 07:43:52;;;;;;;8.08;2.12;;;28.80;99.90;;;;;;1931599;74;21071;-74
2021/06/19 07:46:18;;;;;;;9.43;2.12;;;29.90;99.90;;;;;;1931579;74;21077;-75
2021/06/19 07:48:44;;;;;;;6.60;2.05;;;30.90;99.90;;;;;;1931626;74;21074;-75
2021/06/19 07:51:10;;;;;;;12.10;2.22;;;30.00;99.90;;;;;;1931596;73;21073;-75
2021/06/19 07:53:36;;;;;;;9.68;2.45;;;30.20;99.90;;;;;;1931582;74;21113;-75
2021/06/19 07:56:02;;;;;;;6.95;2.30;;;30.70;99.90;;;;;;1931697;74;21155;-75
2021/06/19 07:58:28;;;;;;;9.53;2.30;;;30.80;99.90;;;;;;1931368;74;21102;-75
2021/06/19 08:00:54;;;;;;;8.83;2.30;;;30.20;99.90;;;;;;1931817;74;21074;-75
2021/06/19 08:03:21;;;;;;;13.30;2.52;;;30.20;99.90;;;;;;1931403;74;21221;-75
2021/06/19 08:05:47;;;;;;;6.70;2.40;;;30.90;99.90;;;;;;1931791;74;21078;-75
2021/06/19 08:08:13;;;;;;;7.92;2.40;;;30.00;99.90;;;;;;1931539;74;21074;-76
2021/06/19 08:10:39;;;;;;;14.15;2.52;;;29.60;99.90;;;;;;1931688;74;21077;-78
2021/06/19 08:13:05;;;;;;;12.00;2.95;;;29.80;99.90;;;;;;1931563;74;21169;-79
2021/06/19 08:15:33;;;;;;;7.80;2.83;;;29.60;99.90;;;;;;1931844;74;21098;-81
2021/06/19 08:17:59;;;;;;;14.90;2.33;;;30.50;99.90;;;;;;1931619;74;21193;-81
2021/06/19 08:20:25;;;;;;;7.58;2.62;;;30.60;99.90;;;;;;1931703;74;21073;-77
2021/06/19 08:22:51;;;;;;;14.60;2.60;;;30.60;99.90;;;;;;1931573;74;21066;-78
2021/06/19 08:25:17;;;;;;;15.72;2.80;;;30.80;99.90;;;;;;1931713;74;21069;-78
2021/06/19 08:27:44;;;;;;;8.83;2.50;;;30.20;99.90;;;;;;1931715;73;21073;-80
2021/06/19 08:30:10;;;;;;;7.47;2.37;;;30.60;99.90;;;;;;1931699;74;21067;-80
2021/06/19 08:32:36;;;;;;;7.78;2.22;;;30.50;99.90;;;;;;1931691;74;21077;-77
2021/06/19 08:35:02;;;;;;;9.95;2.35;;;30.40;99.90;;;;;;1931555;74;21540;-80
2021/06/19 08:37:29;;;;;;;16.65;2.70;;;30.60;99.90;;;;;;1931670;74;21547;-77
2021/06/19 08:39:57;;;;;;;10.72;2.45;;;30.70;99.90;;;;;;1931503;74;21491;-78
2021/06/19 08:42:23;;;;;;;9.63;2.47;;;30.70;99.90;;;;;;1931654;73;21091;-74
2021/06/19 08:44:51;;;;;;;9.03;3.37;;;30.10;99.90;;;;;;1928412;74;21078;-76
2021/06/19 08:47:16;;;;;;;7.75;2.52;;;29.50;99.90;;;;;;1926799;74;21170;-74
2021/06/19 08:49:43;;;;;;;7.17;2.22;;;28.80;99.90;;;;;;1933075;74;21062;-74
2021/06/19 08:52:09;;;;;;;12.15;2.87;;;29.10;99.90;;;;;;1934944;74;21150;-75
2021/06/19 08:54:41;;;;;;;11.57;2.30;;;29.40;99.90;;;;;;1932187;74;21115;-75
2021/06/19 08:57:07;;;;;;;6.03;2.58;;;29.80;99.90;;;;;;1931531;73;21512;-75
2021/06/19 08:59:33;;;;;;;5.97;2.08;;;30.00;99.90;;;;;;1931526;74;21516;-76
2021/06/19 09:01:59;;;;;;;3.90;2.22;;;30.00;99.90;;;;;;1931543;74;21542;-76
2021/06/19 09:04:25;;;;;;;5.33;2.75;;;30.40;99.90;;;;;;1931748;73;21560;-76
2021/06/19 09:06:53;;;;;;;6.83;2.25;;;30.80;99.90;;;;;;1931555;74;21563;-76
2021/06/19 09:09:19;;;;;;;10.72;2.52;;;31.40;99.90;;;;;;1928339;73;21102;-77
2021/06/19 09:11:46;;;;;;;8.38;2.90;;;31.80;99.90;;;;;;1929160;74;21089;-76
2021/06/19 09:14:12;;;;;;;11.22;2.40;;;31.10;99.90;;;;;;1927911;74;21143;-76
2021/06/19 09:16:38;;;;;;;4.25;2.47;;;30.90;99.90;;;;;;1931622;74;21042;-76
2021/06/19 09:19:04;;;;;;;9.65;2.95;;;30.90;99.90;;;;;;1931541;74;21144;-76
2021/06/19 09:21:30;;;;;;;7.53;1.98;;;31.00;99.90;;;;;;1926956;74;21086;-76
2021/06/19 09:23:57;;;;;;;7.62;2.87;;;31.20;99.90;;;;;;1929424;74;21194;-76
2021/06/19 09:26:23;;;;;;;10.28;2.50;;;31.50;99.90;;;;;;1920334;74;21043;-75
2021/06/19 09:28:52;;;;;;;12.85;2.50;;;31.60;99.90;;;;;;1912254;75;21078;-75
2021/06/19 09:31:18;;;;;;;10.40;2.62;;;31.50;99.90;;;;;;1927240;74;21492;-74
2021/06/19 09:33:44;;;;;;;4.40;2.10;;;31.30;99.90;;;;;;1931671;74;21489;-74
2021/06/19 09:36:10;;;;;;;11.33;2.85;;;31.70;99.90;;;;;;1931582;74;21466;-74
2021/06/19 09:38:36;;;;;;;6.62;2.00;;;31.50;99.90;;;;;;1931562;74;21609;-74
2021/06/19 09:41:04;;;;;;;7.40;2.20;;;30.90;99.90;;;;;;1931436;74;21506;-74
2021/06/19 09:43:31;;;;;;;7.70;2.65;;;31.20;99.90;;;;;;1931625;74;21051;-74
2021/06/19 09:45:59;;;;;;;7.12;2.17;;;31.50;99.90;;;;;;1932596;74;21050;-74
2021/06/19 09:48:25;;;;;;;6.80;2.72;;;31.80;99.90;;;;;;1931513;74;21167;-74
2021/06/19 09:50:51;;;;;;;8.60;2.00;;;32.00;99.90;;;;;;1931654;74;21151;-74
2021/06/19 09:53:17;;;;;;;9.83;2.65;;;32.00;99.90;;;;;;1931537;74;21559;-73
2021/06/19 09:55:44;;;;;;;13.95;2.45;;;32.10;99.90;;;;;;1932075;74;21462;-74
2021/06/19 09:58:10;;;;;;;9.95;3.10;;;32.20;99.90;;;;;;1931526;74;21567;-74
2021/06/19 10:00:36;;;;;;;6.80;2.80;;;31.80;99.90;;;;;;1931496;74;21530;-74
2021/06/19 10:03:02;;;;;;;6.05;1.98;;;32.00;99.90;;;;;;1931502;74;21490;-74
2021/06/19 10:05:28;;;;;;;6.28;2.12;;;32.10;99.90;;;;;;1931487;74;21522;-74
2021/06/19 10:07:54;;;;;;;10.60;2.47;;;32.10;99.90;;;;;;1931469;74;21481;-74
2021/06/19 10:10:21;;;;;;;13.30;2.20;;;31.50;99.90;;;;;;1931501;74;21559;-74
2021/06/19 10:12:47;;;;;;;9.10;2.40;;;31.20;99.90;;;;;;1931506;74;21125;-74
2021/06/19 10:15:13;;;;;;;8.40;2.27;;;31.60;99.90;;;;;;1931524;74;21515;-74
2021/06/19 10:17:40;;;;;;;9.65;2.40;;;32.20;99.90;;;;;;1931535;74;21533;-76
2021/06/19 10:20:06;;;;;;;3.77;1.92;;;32.70;99.90;;;;;;1931507;73;21611;-75
2021/06/19 10:22:32;;;;;;;7.87;2.27;;;33.00;99.90;;;;;;1931595;73;21474;-75
2021/06/19 10:25:02;;;;;;;9.03;2.42;;;32.20;99.90;;;;;;1931393;74;21527;-75
2021/06/19 10:27:29;;;;;;;5.67;2.22;;;31.90;99.90;;;;;;1930973;74;21072;-76
2021/06/19 10:32:38;;;;;;;14.90;2.22;;;32.20;99.90;;;;;;1931578;74;21168;-75
2021/06/19 10:35:04;;;;;;;6.83;2.80;;;32.30;99.90;;;;;;1931919;74;21077;-74
2021/06/19 10:37:31;;;;;;;7.65;2.65;;;32.20;99.90;;;;;;1931974;74;21490;-76
2021/06/19 10:39:57;;;;;;;8.93;2.37;;;32.20;99.90;;;;;;1931894;73;21116;-75
2021/06/19 10:42:23;;;;;;;11.35;2.27;;;31.90;99.90;;;;;;1931937;74;21062;-74
2021/06/19 10:44:49;;;;;;;10.55;2.37;;;31.90;99.90;;;;;;1931961;74;21066;-75
2021/06/19 10:47:15;;;;;;;17.42;2.62;;;32.00;99.90;;;;;;1931891;74;21066;-74
2021/06/19 10:49:41;;;;;;;6.05;2.55;;;32.00;99.90;;;;;;1931816;74;21074;-74
2021/06/19 10:52:07;;;;;;;6.78;2.40;;;31.80;99.90;;;;;;1932036;74;21109;-74
2021/06/19 10:54:34;;;;;;;12.63;2.35;;;32.10;99.90;;;;;;1932094;74;21065;-75
2021/06/19 10:57:00;;;;;;;5.80;2.30;;;31.80;99.90;;;;;;1932119;74;21149;-74
2021/06/19 10:59:26;;;;;;;9.70;2.47;;;32.30;99.90;;;;;;1932077;74;21064;-75
2021/06/19 11:01:52;;;;;;;7.28;2.62;;;32.70;99.90;;;;;;1931953;74;21073;-74
2021/06/19 11:04:18;;;;;;;9.83;2.10;;;32.90;99.90;;;;;;1932057;74;21058;-74
2021/06/19 11:06:44;;;;;;;11.12;2.62;;;32.60;99.90;;;;;;1932110;74;21034;-75
2021/06/19 11:09:15;;;;;;;9.28;2.47;;;32.80;99.90;;;;;;1931992;74;21489;-75
2021/06/19 11:11:38;;;;;;;7.87;2.37;;;33.10;99.90;;;;;;1931114;74;21090;-75
2021/06/19 11:14:04;;;;;;;5.10;2.30;;;32.80;99.90;;;;;;1931877;74;21069;-75
2021/06/19 11:16:31;;;;;;;8.18;2.52;;;32.90;99.90;;;;;;1932106;73;21081;-75
2021/06/19 11:18:57;;;;;;;14.68;2.35;;;32.50;99.90;;;;;;1931727;74;21124;-75
2021/06/19 11:21:23;;;;;;;10.38;2.35;;;32.30;99.90;;;;;;1931947;74;21155;-76
2021/06/19 11:23:49;;;;;;;9.88;2.27;;;32.60;99.90;;;;;;1918346;73;21094;-76
2021/06/19 11:26:15;;;;;;;8.73;1.87;;;32.60;99.90;;;;;;1927808;74;21039;-76
2021/06/19 11:28:41;;;;;;;5.62;1.90;;;33.00;99.90;;;;;;1931744;74;21147;-76
2021/06/19 11:31:07;;;;;;;11.85;2.40;;;33.30;99.90;;;;;;1931943;74;21203;-76
2021/06/19 11:33:35;;;;;;;16.93;2.30;;;33.30;98.60;;;;;;1931983;73;21131;-76
2021/06/19 11:36:03;;;;;;;7.10;1.70;;;33.30;97.70;;;;;;1926458;74;21108;-76
2021/06/19 11:38:29;;;;;;;13.35;2.17;;;33.30;96.80;;;;;;1931803;74;21054;-76
2021/06/19 11:40:55;;;;;;;7.58;2.17;;;33.20;96.60;;;;;;1931849;73;21073;-76
2021/06/19 11:43:21;;;;;;;7.87;1.90;;;32.80;96.20;;;;;;1931510;73;21242;-76
2021/06/19 11:45:48;;;;;;;15.48;2.40;;;32.90;98.10;;;;;;1931738;74;21086;-75
2021/06/19 11:48:18;;;;;;;4.12;1.50;;;33.20;96.30;;;;;;1931690;74;21033;-77
2021/06/19 11:50:44;;;;;;;9.18;1.87;;;33.30;94.50;;;;;;1931607;74;21506;-76
2021/06/19 11:53:10;;;;;;;20.92;2.58;;;33.50;93.50;;;;;;1931491;74;21099;-75
2021/06/19 11:55:36;;;;;;;5.67;1.95;;;33.90;94.00;;;;;;1931683;74;21074;-74
2021/06/19 11:58:03;;;;;;;10.13;2.52;;;34.20;93.90;;;;;;1931615;74;21111;-77
2021/06/19 12:00:29;;;;;;;14.98;2.42;;;34.60;91.50;;;;;;1931567;74;21147;-77
2021/06/19 12:03:00;;;;;;;8.13;2.02;;;35.10;88.10;;;;;;1931591;74;21139;-78
2021/06/19 12:05:23;;;;;;;12.93;2.20;;;34.50;85.40;;;;;;1930677;74;21173;-78
2021/06/19 12:07:49;;;;;;;16.12;2.10;;;33.90;86.60;;;;;;1931590;74;21047;-77
2021/06/19 12:10:15;;;;;;;19.20;2.50;;;34.00;87.20;;;;;;1931582;74;21078;-77
2021/06/19 12:12:41;;;;;;;18.17;2.30;;;34.30;82.40;;;;;;1931654;74;21085;-80
2021/06/19 12:15:07;;;;;;;6.25;1.92;;;34.40;84.10;;;;;;1931671;74;21243;-80
2021/06/19 12:17:33;;;;;;;8.13;2.17;;;35.00;83.40;;;;;;1931737;74;21069;-79
2021/06/19 12:19:59;;;;;;;12.78;2.20;;;34.50;83.20;;;;;;1931809;73;21078;-80
2021/06/19 12:22:26;;;;;;;11.63;2.05;;;35.10;82.00;;;;;;1931719;74;21135;-80
2021/06/19 12:24:52;;;;;;;14.63;2.27;;;35.30;79.70;;;;;;1931722;74;21074;-79
2021/06/19 12:27:18;;;;;;;21.33;2.33;;;35.60;76.60;;;;;;1931546;74;21070;-78
2021/06/19 12:29:44;;;;;;;11.75;2.30;;;35.00;78.90;;;;;;1931665;74;21497;-79
2021/06/19 12:32:10;;;;;;;11.33;2.05;;;34.70;79.00;;;;;;1931605;74;21134;-80
2021/06/19 12:34:36;;;;;;;25.48;2.62;;;34.70;79.60;;;;;;1931631;74;21074;-78
2021/06/19 12:37:03;;;;;;;10.05;2.27;;;34.50;75.00;;;;;;1931712;74;21038;-78
2021/06/19 12:39:29;;;;;;;14.98;2.75;;;34.50;76.30;;;;;;1931569;73;21143;-77